Time;durP1;ratioP1;P1;durP2;ratioP2;P2;SDS_P1;SDS_P2;PMS_P1;PMS_P2;Temp;Humidity;BMP_temperature;BMP_pressure;BME280_temperature;BME280_humidity;BME280_pressure;Samples;Min_cycle;Max_cycle;Signal;HPM_P1;HPM_P2
2023/08/20 00:01:23;;;;;;;4.20;4.20;;;18.40;99.90;;;;;;4995050;28;20905;-66
2023/08/20 00:03:51;;;;;;;4.23;4.23;;;18.40;99.90;;;;;;4985937;28;21460;-67
2023/08/20 00:06:19;;;;;;;4.27;4.27;;;18.40;99.90;;;;;;4984341;28;20482;-67
2023/08/20 00:08:47;;;;;;;4.30;4.30;;;18.30;99.90;;;;;;4989105;28;20461;-67
2023/08/20 00:11:16;;;;;;;4.70;4.70;;;18.30;99.90;;;;;;4987360;28;20466;-67
2023/08/20 00:13:45;;;;;;;4.67;4.67;;;18.30;99.90;;;;;;4983248;28;20462;-67
2023/08/20 00:16:12;;;;;;;4.70;4.70;;;18.30;99.90;;;;;;4985560;28;20492;-67
2023/08/20 00:18:40;;;;;;;4.83;4.83;;;18.30;99.90;;;;;;4989218;28;20466;-67
2023/08/20 00:21:08;;;;;;;4.50;4.50;;;18.30;99.90;;;;;;4985780;28;20474;-67
2023/08/20 00:23:35;;;;;;;4.60;4.60;;;18.30;99.90;;;;;;4989100;28;20581;-67
2023/08/20 00:26:03;;;;;;;4.87;4.87;;;18.30;99.90;;;;;;4988721;28;20459;-67
2023/08/20 00:28:33;;;;;;;4.80;4.80;;;18.30;99.90;;;;;;4985023;28;20540;-67
2023/08/20 00:31:01;;;;;;;5.40;5.30;;;18.30;99.90;;;;;;4986102;28;20461;-67
2023/08/20 00:33:27;;;;;;;5.20;5.10;;;18.30;99.90;;;;;;4987135;28;20502;-67
2023/08/20 00:35:55;;;;;;;4.90;4.90;;;18.30;99.90;;;;;;4987629;28;20463;-67
2023/08/20 00:38:23;;;;;;;4.87;4.87;;;18.40;99.90;;;;;;4988906;28;20466;-67
2023/08/20 00:40:50;;;;;;;4.90;4.90;;;18.40;99.90;;;;;;4988541;28;20471;-67
2023/08/20 00:43:17;;;;;;;4.50;4.50;;;18.40;99.90;;;;;;4987745;28;20470;-67
2023/08/20 00:45:48;;;;;;;4.70;4.70;;;18.40;99.90;;;;;;4985064;28;20865;-67
2023/08/20 00:48:18;;;;;;;4.60;4.60;;;18.40;99.90;;;;;;4987359;28;20897;-67
2023/08/20 00:50:45;;;;;;;4.60;4.60;;;18.40;99.90;;;;;;4982203;28;20467;-67
2023/08/20 00:53:15;;;;;;;4.93;4.93;;;18.40;99.90;;;;;;4989052;28;20454;-66
2023/08/20 00:55:44;;;;;;;4.50;4.50;;;18.40;99.90;;;;;;4987726;28;20481;-67
2023/08/20 00:58:12;;;;;;;4.30;4.30;;;18.30;99.90;;;;;;4983819;28;20466;-67
2023/08/20 01:00:38;;;;;;;4.73;4.73;;;18.30;99.90;;;;;;4989459;28;20501;-67
2023/08/20 01:03:07;;;;;;;4.80;4.80;;;18.40;99.90;;;;;;4987755;28;20466;-67
2023/08/20 01:05:40;;;;;;;4.67;4.67;;;18.50;99.90;;;;;;4986215;28;20503;-68
2023/08/20 01:08:20;;;;;;;4.50;4.50;;;18.50;99.90;;;;;;4977635;28;20462;-67
2023/08/20 01:10:57;;;;;;;4.70;4.70;;;18.50;99.90;;;;;;4986802;28;20824;-66
2023/08/20 01:13:24;;;;;;;4.50;4.50;;;18.50;99.90;;;;;;4988572;28;20842;-67
2023/08/20 01:15:51;;;;;;;4.53;4.53;;;18.60;99.90;;;;;;4988457;28;20478;-68
2023/08/20 01:18:19;;;;;;;4.20;4.20;;;18.70;99.90;;;;;;4984173;28;20549;-67
2023/08/20 01:21:03;;;;;;;4.10;4.10;;;18.70;99.90;;;;;;4987631;28;20490;-66
2023/08/20 01:23:58;;;;;;;4.23;4.23;;;18.80;99.90;;;;;;4991302;28;21071;-67
2023/08/20 01:26:50;;;;;;;4.07;4.07;;;18.80;99.90;;;;;;4992381;28;20461;-68
2023/08/20 01:29:20;;;;;;;4.60;4.60;;;18.80;99.90;;;;;;4990923;28;20553;-68
2023/08/20 01:31:48;;;;;;;4.40;4.40;;;18.80;99.90;;;;;;4995946;28;20870;-67
2023/08/20 01:34:14;;;;;;;4.50;4.50;;;18.80;99.90;;;;;;4989030;28;20850;-67
2023/08/20 01:36:41;;;;;;;4.47;4.47;;;18.70;99.90;;;;;;4992151;28;20465;-67
2023/08/20 01:39:08;;;;;;;3.80;3.80;;;18.70;99.90;;;;;;4991477;28;20873;-66
2023/08/20 01:41:34;;;;;;;4.60;4.60;;;18.60;99.90;;;;;;4991924;28;20541;-67
2023/08/20 01:44:01;;;;;;;5.23;5.13;;;18.60;99.90;;;;;;4987624;28;20490;-67
2023/08/20 01:46:29;;;;;;;4.50;4.50;;;18.60;99.90;;;;;;4992016;28;20824;-67
2023/08/20 01:48:56;;;;;;;4.27;4.27;;;18.60;99.90;;;;;;4990953;28;20474;-67
2023/08/20 01:51:23;;;;;;;4.40;4.40;;;18.40;99.90;;;;;;4991614;28;20462;-67
2023/08/20 01:53:51;;;;;;;4.10;4.10;;;18.40;99.90;;;;;;4990761;28;20570;-67
2023/08/20 01:56:18;;;;;;;4.10;4.10;;;18.40;99.90;;;;;;4987535;28;21060;-68
2023/08/20 01:58:46;;;;;;;3.90;3.90;;;18.50;99.90;;;;;;4989667;28;20473;-66
2023/08/20 02:01:15;;;;;;;3.80;3.80;;;18.60;99.90;;;;;;5000908;28;20503;-68
2023/08/20 02:03:44;;;;;;;3.30;3.30;;;18.50;99.90;;;;;;4993063;28;20462;-67
2023/08/20 02:06:11;;;;;;;3.03;3.03;;;18.50;99.90;;;;;;4990454;28;20462;-67
2023/08/20 02:08:38;;;;;;;3.50;3.50;;;18.40;99.90;;;;;;4991862;28;20478;-66
2023/08/20 02:11:05;;;;;;;3.30;3.30;;;18.30;99.90;;;;;;4988000;28;20887;-66
2023/08/20 02:13:32;;;;;;;3.10;3.10;;;18.30;99.90;;;;;;4991645;28;20477;-67
2023/08/20 02:16:01;;;;;;;3.20;3.20;;;18.20;99.90;;;;;;4991914;28;20486;-66
2023/08/20 02:18:28;;;;;;;3.17;3.17;;;18.20;99.90;;;;;;4990140;28;20981;-67
2023/08/20 02:20:56;;;;;;;2.83;2.83;;;18.20;99.90;;;;;;4991953;28;20490;-67
2023/08/20 02:23:24;;;;;;;2.00;2.00;;;18.20;99.90;;;;;;4991582;28;21063;-67
2023/08/20 02:25:51;;;;;;;2.10;2.10;;;18.30;99.90;;;;;;4988006;28;20517;-66
2023/08/20 02:28:18;;;;;;;1.80;1.80;;;18.40;99.90;;;;;;4986222;28;20471;-67
2023/08/20 02:30:47;;;;;;;1.67;1.67;;;18.40;99.90;;;;;;4991390;28;20462;-67
2023/08/20 02:33:14;;;;;;;2.00;2.00;;;18.50;99.90;;;;;;4991457;28;20458;-67
2023/08/20 02:35:42;;;;;;;2.00;2.00;;;18.50;99.90;;;;;;4990778;28;20873;-67
2023/08/20 02:38:11;;;;;;;2.00;2.00;;;18.40;99.90;;;;;;4990221;28;20486;-66
2023/08/20 02:40:42;;;;;;;2.20;2.20;;;18.40;99.90;;;;;;4986423;28;20458;-66
2023/08/20 02:43:08;;;;;;;2.30;2.30;;;18.50;99.90;;;;;;4987125;28;20553;-67
2023/08/20 02:45:42;;;;;;;2.30;2.30;;;18.50;99.90;;;;;;4988319;28;20473;-67
2023/08/20 02:48:09;;;;;;;2.53;2.53;;;18.40;99.90;;;;;;4990057;28;20545;-67
2023/08/20 02:50:36;;;;;;;2.60;2.60;;;18.40;99.90;;;;;;4991006;28;20521;-68
2023/08/20 02:53:04;;;;;;;2.33;2.33;;;18.30;99.90;;;;;;4991077;28;20473;-66
2023/08/20 02:55:32;;;;;;;2.50;2.50;;;18.20;99.90;;;;;;4989316;28;20493;-67
2023/08/20 02:58:00;;;;;;;2.90;2.90;;;18.20;99.90;;;;;;4986260;28;20818;-67
2023/08/20 03:00:27;;;;;;;2.80;2.80;;;18.20;99.90;;;;;;4988583;28;20561;-66
2023/08/20 03:02:56;;;;;;;2.90;2.90;;;18.20;99.90;;;;;;4994446;28;20451;-66
2023/08/20 03:05:23;;;;;;;2.50;2.50;;;18.20;99.90;;;;;;4990929;28;20735;-67
2023/08/20 03:07:51;;;;;;;2.40;2.40;;;18.20;99.90;;;;;;4987490;28;20454;-67
2023/08/20 03:10:18;;;;;;;3.03;3.03;;;18.10;99.90;;;;;;4990575;28;20553;-67
2023/08/20 03:12:46;;;;;;;2.60;2.60;;;18.10;99.90;;;;;;4988169;28;21054;-67
2023/08/20 03:15:14;;;;;;;3.43;3.43;;;18.10;99.90;;;;;;4989106;28;20545;-67
2023/08/20 03:17:41;;;;;;;2.63;2.63;;;18.10;99.90;;;;;;4989110;28;20465;-67
2023/08/20 03:20:11;;;;;;;3.03;3.03;;;18.10;99.90;;;;;;4989004;28;20784;-67
2023/08/20 03:22:39;;;;;;;2.80;2.80;;;18.10;99.90;;;;;;4987411;28;20477;-68
2023/08/20 03:25:07;;;;;;;3.10;3.10;;;18.00;99.90;;;;;;4985295;28;20482;-67
2023/08/20 03:27:34;;;;;;;2.60;2.60;;;18.00;99.90;;;;;;4990699;28;20514;-67
2023/08/20 03:30:02;;;;;;;2.67;2.67;;;17.90;99.90;;;;;;4989103;28;20829;-66
2023/08/20 03:32:30;;;;;;;2.50;2.50;;;17.90;99.90;;;;;;4983854;28;20525;-67
2023/08/20 03:34:58;;;;;;;3.23;3.23;;;17.90;99.90;;;;;;4986635;28;20470;-67
2023/08/20 03:37:26;;;;;;;2.60;2.60;;;17.90;99.90;;;;;;4989948;28;20459;-66
2023/08/20 03:39:53;;;;;;;2.63;2.63;;;17.90;99.90;;;;;;4989265;28;20455;-67
2023/08/20 03:42:20;;;;;;;3.00;3.00;;;17.90;99.90;;;;;;4989910;28;20467;-66
2023/08/20 03:44:47;;;;;;;2.77;2.77;;;17.90;99.90;;;;;;4986305;28;20481;-67
2023/08/20 03:47:19;;;;;;;2.87;2.87;;;17.90;99.90;;;;;;4985172;28;20471;-65
2023/08/20 03:49:46;;;;;;;3.43;3.43;;;18.00;99.90;;;;;;4989074;28;20467;-67
2023/08/20 03:52:13;;;;;;;3.00;3.00;;;18.00;99.90;;;;;;4989997;28;20459;-67
2023/08/20 03:54:41;;;;;;;2.70;2.70;;;18.00;99.90;;;;;;4989515;28;20572;-66
2023/08/20 03:57:09;;;;;;;2.70;2.70;;;18.00;99.90;;;;;;4988259;28;20489;-68
2023/08/20 03:59:36;;;;;;;3.00;3.00;;;17.90;99.90;;;;;;4983813;28;20462;-67
2023/08/20 04:02:03;;;;;;;2.87;2.87;;;17.90;99.90;;;;;;4993004;28;20469;-67
2023/08/20 04:04:31;;;;;;;3.20;3.20;;;17.90;99.90;;;;;;4975437;28;20497;-67
2023/08/20 04:07:00;;;;;;;3.53;3.53;;;17.90;99.90;;;;;;4989526;28;20458;-67
2023/08/20 04:09:26;;;;;;;3.00;3.00;;;17.90;99.90;;;;;;4986104;28;20467;-67
2023/08/20 04:11:53;;;;;;;2.90;2.90;;;17.90;99.90;;;;;;4989791;28;20458;-67
2023/08/20 04:14:20;;;;;;;3.30;3.30;;;17.90;99.90;;;;;;4989110;28;20458;-67
2023/08/20 04:16:47;;;;;;;3.60;3.60;;;17.80;99.90;;;;;;4987986;28;20471;-67
2023/08/20 04:19:14;;;;;;;3.50;3.50;;;17.80;99.90;;;;;;4989309;28;20474;-65
2023/08/20 04:21:43;;;;;;;3.57;3.57;;;17.80;99.90;;;;;;4985961;28;20470;-67
2023/08/20 04:24:10;;;;;;;3.53;3.53;;;17.70;99.90;;;;;;4989609;28;20451;-67
2023/08/20 04:26:37;;;;;;;3.13;3.13;;;17.70;99.90;;;;;;4989031;28;20506;-67
2023/08/20 04:29:04;;;;;;;2.97;2.97;;;17.50;99.90;;;;;;4985628;28;20978;-66
2023/08/20 04:31:31;;;;;;;3.90;3.90;;;17.50;99.90;;;;;;4998310;28;20458;-66
2023/08/20 04:33:58;;;;;;;3.67;3.67;;;17.50;99.90;;;;;;4989274;28;20458;-66
2023/08/20 04:36:24;;;;;;;3.70;3.70;;;17.50;99.90;;;;;;4986540;28;20466;-67
2023/08/20 04:38:52;;;;;;;3.93;3.93;;;17.50;99.90;;;;;;4986333;28;20849;-66
2023/08/20 04:41:20;;;;;;;3.60;3.60;;;17.50;99.90;;;;;;4989101;28;20465;-67
2023/08/20 04:43:46;;;;;;;3.70;3.70;;;17.40;99.90;;;;;;4985351;28;20470;-67
2023/08/20 04:46:14;;;;;;;4.40;4.40;;;17.40;99.90;;;;;;4988182;28;20940;-67
2023/08/20 04:48:42;;;;;;;4.30;4.30;;;17.40;99.90;;;;;;4985248;28;20470;-66
2023/08/20 04:51:09;;;;;;;3.90;3.90;;;17.50;99.90;;;;;;4985290;28;20476;-67
2023/08/20 04:53:35;;;;;;;3.80;3.80;;;17.50;99.90;;;;;;4986896;28;20497;-66
2023/08/20 04:56:04;;;;;;;3.70;3.70;;;17.50;99.90;;;;;;4987170;28;20974;-66
2023/08/20 04:58:32;;;;;;;3.70;3.70;;;17.50;99.90;;;;;;4988665;28;20462;-66
2023/08/20 05:00:58;;;;;;;3.50;3.50;;;17.50;99.90;;;;;;4994639;28;20996;-66
2023/08/20 05:03:27;;;;;;;3.30;3.30;;;17.50;99.90;;;;;;4985366;28;20805;-67
2023/08/20 05:05:55;;;;;;;3.60;3.60;;;17.60;99.90;;;;;;4988755;28;20868;-67
2023/08/20 05:08:21;;;;;;;3.30;3.30;;;17.60;99.90;;;;;;4989060;28;20462;-67
2023/08/20 05:10:50;;;;;;;3.37;3.37;;;17.60;99.90;;;;;;4980724;28;20467;-67
2023/08/20 05:13:20;;;;;;;3.40;3.40;;;17.60;99.90;;;;;;4985322;28;20466;-66
2023/08/20 05:15:47;;;;;;;3.80;3.80;;;17.50;99.90;;;;;;4978926;28;20490;-67
2023/08/20 05:18:14;;;;;;;4.00;4.00;;;17.60;99.90;;;;;;4988896;28;20839;-67
2023/08/20 05:20:41;;;;;;;4.07;4.07;;;17.60;99.90;;;;;;4984762;28;20470;-67
2023/08/20 05:23:08;;;;;;;3.37;3.37;;;17.60;99.90;;;;;;4988844;28;20489;-66
2023/08/20 05:25:36;;;;;;;2.80;2.80;;;17.60;99.90;;;;;;4983374;28;20491;-67
2023/08/20 05:28:02;;;;;;;2.90;2.90;;;17.70;99.90;;;;;;4988502;28;20972;-67
2023/08/20 05:30:31;;;;;;;2.53;2.53;;;17.70;99.90;;;;;;4987470;28;20454;-66
2023/08/20 05:32:58;;;;;;;2.87;2.87;;;17.70;99.90;;;;;;4984876;28;20947;-66
2023/08/20 05:35:24;;;;;;;3.13;3.13;;;17.80;99.90;;;;;;4988759;28;20470;-67
2023/08/20 05:37:53;;;;;;;2.80;2.80;;;17.90;99.90;;;;;;4987167;28;20481;-67
2023/08/20 05:40:20;;;;;;;2.80;2.80;;;18.00;99.90;;;;;;4986409;28;20458;-67
2023/08/20 05:42:48;;;;;;;2.83;2.83;;;18.00;99.90;;;;;;4984950;28;20552;-67
2023/08/20 05:45:15;;;;;;;2.40;2.40;;;18.00;99.90;;;;;;4985785;28;20486;-66
2023/08/20 05:47:43;;;;;;;2.50;2.50;;;18.10;99.90;;;;;;4977531;28;20766;-67
2023/08/20 05:50:11;;;;;;;2.20;2.20;;;18.10;99.90;;;;;;4988010;28;20485;-67
2023/08/20 05:52:38;;;;;;;2.60;2.60;;;18.10;99.90;;;;;;4988441;28;20466;-67
2023/08/20 05:55:06;;;;;;;2.67;2.67;;;18.20;99.90;;;;;;4983939;28;20481;-66
2023/08/20 05:57:33;;;;;;;2.70;2.70;;;18.30;99.90;;;;;;4985808;28;20466;-67
2023/08/20 06:00:00;;;;;;;2.80;2.80;;;18.40;99.90;;;;;;4981606;28;20550;-68
2023/08/20 06:02:27;;;;;;;2.80;2.80;;;18.60;99.90;;;;;;4979275;28;20455;-65
2023/08/20 06:04:57;;;;;;;2.90;2.90;;;18.70;99.90;;;;;;4983411;28;20467;-67
2023/08/20 06:07:23;;;;;;;2.40;2.40;;;18.80;99.90;;;;;;4983100;28;20462;-68
2023/08/20 06:09:50;;;;;;;2.47;2.47;;;18.90;99.90;;;;;;4983857;28;20471;-66
2023/08/20 06:12:17;;;;;;;2.00;2.00;;;18.90;99.90;;;;;;4985927;28;20808;-68
2023/08/20 06:14:44;;;;;;;2.40;2.40;;;19.00;99.90;;;;;;4988188;28;20833;-67
2023/08/20 06:17:12;;;;;;;2.40;2.40;;;19.10;99.90;;;;;;4996521;28;20454;-67
2023/08/20 06:19:38;;;;;;;2.20;2.20;;;19.10;99.90;;;;;;4990360;28;20821;-67
2023/08/20 06:22:07;;;;;;;2.10;2.10;;;19.10;99.90;;;;;;4988278;28;20568;-66
2023/08/20 06:24:34;;;;;;;2.80;2.80;;;19.20;99.90;;;;;;4987188;28;20469;-67
2023/08/20 06:27:00;;;;;;;2.50;2.50;;;19.20;99.90;;;;;;4988081;28;20840;-66
2023/08/20 06:29:27;;;;;;;2.60;2.60;;;19.20;99.90;;;;;;4988196;28;20478;-67
2023/08/20 06:31:54;;;;;;;2.60;2.60;;;19.20;99.90;;;;;;4988363;28;20473;-66
2023/08/20 06:34:22;;;;;;;2.30;2.30;;;19.30;99.90;;;;;;4991473;28;20493;-66
2023/08/20 06:36:50;;;;;;;3.20;3.20;;;19.40;99.90;;;;;;4987504;28;20820;-67
2023/08/20 06:39:19;;;;;;;2.90;2.90;;;19.50;99.90;;;;;;4984065;28;20463;-67
2023/08/20 06:41:46;;;;;;;3.30;3.30;;;19.60;99.90;;;;;;4984298;28;20557;-66
2023/08/20 06:44:13;;;;;;;3.30;3.30;;;19.70;99.90;;;;;;4989362;28;20771;-67
2023/08/20 06:46:41;;;;;;;3.30;3.30;;;19.70;99.90;;;;;;4985950;28;20500;-67
2023/08/20 06:49:07;;;;;;;2.93;2.93;;;19.80;99.90;;;;;;4986640;28;20476;-66
2023/08/20 06:51:34;;;;;;;2.70;2.70;;;19.90;99.90;;;;;;4979539;28;20491;-68
2023/08/20 06:54:01;;;;;;;3.10;3.10;;;19.90;99.90;;;;;;4983467;28;20493;-67
2023/08/20 06:56:29;;;;;;;3.20;3.20;;;20.00;99.90;;;;;;4987137;28;20463;-67
2023/08/20 06:58:56;;;;;;;2.70;2.70;;;20.10;99.90;;;;;;4982230;28;20929;-66
2023/08/20 07:01:23;;;;;;;3.23;3.23;;;20.10;99.90;;;;;;4986863;28;20463;-66
2023/08/20 07:03:50;;;;;;;3.10;3.10;;;20.20;99.90;;;;;;4983541;28;20831;-67
2023/08/20 07:06:18;;;;;;;3.03;3.03;;;20.30;99.90;;;;;;4984291;28;20501;-66
2023/08/20 07:08:45;;;;;;;3.87;3.87;;;20.40;99.90;;;;;;4977684;28;20489;-67
2023/08/20 07:11:12;;;;;;;3.60;3.60;;;20.50;99.90;;;;;;4979141;28;20529;-68
2023/08/20 07:13:40;;;;;;;3.83;3.83;;;20.60;99.90;;;;;;4984448;28;20558;-67
2023/08/20 07:16:07;;;;;;;4.10;4.10;;;20.70;99.90;;;;;;4998775;28;20539;-68
2023/08/20 07:18:34;;;;;;;3.60;3.60;;;20.80;99.90;;;;;;4990260;28;20493;-68
2023/08/20 07:21:01;;;;;;;4.50;4.50;;;21.00;99.90;;;;;;4983915;28;21092;-68
2023/08/20 07:23:28;;;;;;;5.30;5.20;;;21.00;99.90;;;;;;4985782;28;20988;-68
2023/08/20 07:26:05;;;;;;;5.50;5.40;;;21.20;99.90;;;;;;4989345;28;21138;-67
2023/08/20 07:31:15;;;;;;;5.30;5.20;;;21.60;99.90;;;;;;4982797;28;20458;-67
2023/08/20 07:33:42;;;;;;;5.23;5.13;;;21.70;99.90;;;;;;4983006;28;20474;-68
2023/08/20 07:36:10;;;;;;;5.20;5.10;;;21.80;99.90;;;;;;4987253;28;20455;-68
2023/08/20 07:38:40;;;;;;;5.53;5.43;;;21.90;99.90;;;;;;4984802;28;20462;-69
2023/08/20 07:41:08;;;;;;;5.90;5.80;;;22.00;99.90;;;;;;4949317;28;20541;-68
2023/08/20 07:43:35;;;;;;;6.63;6.53;;;22.10;99.90;;;;;;4984213;28;20481;-68
2023/08/20 07:46:02;;;;;;;6.60;6.50;;;22.20;99.90;;;;;;4974342;28;20918;-67
2023/08/20 07:48:30;;;;;;;6.70;6.60;;;22.50;99.90;;;;;;4987957;28;20470;-68
2023/08/20 07:50:57;;;;;;;6.80;6.70;;;22.50;99.90;;;;;;4988492;28;20819;-69
2023/08/20 07:53:24;;;;;;;7.43;7.33;;;22.60;99.90;;;;;;4988115;28;20506;-67
2023/08/20 07:55:51;;;;;;;7.30;7.20;;;22.80;99.90;;;;;;4984534;28;20478;-67
2023/08/20 07:58:18;;;;;;;7.57;7.47;;;22.90;99.90;;;;;;4985670;28;20466;-67
2023/08/20 08:00:45;;;;;;;7.70;7.60;;;23.00;99.90;;;;;;4985132;28;20924;-68
2023/08/20 08:03:14;;;;;;;7.40;7.30;;;23.20;99.90;;;;;;4989197;28;20489;-68
2023/08/20 08:05:42;;;;;;;7.60;7.50;;;23.30;99.90;;;;;;4986688;28;21033;-69
2023/08/20 08:08:09;;;;;;;7.87;7.77;;;23.30;99.90;;;;;;4984976;28;20473;-69
2023/08/20 08:10:36;;;;;;;7.73;7.63;;;23.50;99.90;;;;;;4987730;28;20525;-68
2023/08/20 08:13:03;;;;;;;8.30;8.20;;;23.60;99.90;;;;;;4981398;28;20529;-68
2023/08/20 08:15:31;;;;;;;7.90;7.80;;;23.80;99.90;;;;;;4988471;28;20497;-69
2023/08/20 08:17:58;;;;;;;8.83;8.70;;;23.90;99.90;;;;;;4984848;28;20831;-68
2023/08/20 08:20:27;;;;;;;8.10;8.00;;;24.10;99.90;;;;;;4985796;28;20470;-67
2023/08/20 08:22:55;;;;;;;7.83;7.73;;;24.20;99.90;;;;;;4978819;28;20474;-68
2023/08/20 08:25:22;;;;;;;8.43;8.33;;;24.20;99.90;;;;;;4983397;28;20458;-68
2023/08/20 08:27:49;;;;;;;8.03;7.93;;;24.30;99.90;;;;;;4985255;28;20914;-69
2023/08/20 08:30:16;;;;;;;8.53;8.43;;;24.40;99.90;;;;;;4981437;28;20478;-68
2023/08/20 08:32:43;;;;;;;8.20;8.10;;;24.40;99.90;;;;;;4982978;28;20477;-68
2023/08/20 08:35:10;;;;;;;8.43;8.33;;;24.50;99.90;;;;;;4976220;28;20509;-68
2023/08/20 08:37:37;;;;;;;8.60;8.50;;;24.60;99.90;;;;;;4977433;28;20474;-70
2023/08/20 08:40:06;;;;;;;9.17;8.97;;;24.70;99.90;;;;;;4985209;28;20459;-68
2023/08/20 08:42:34;;;;;;;8.80;8.70;;;24.80;99.90;;;;;;4986659;28;20462;-68
2023/08/20 08:45:02;;;;;;;9.07;8.90;;;24.90;99.90;;;;;;4982881;28;20466;-69
2023/08/20 08:47:29;;;;;;;8.90;8.80;;;25.00;99.90;;;;;;4987730;28;20801;-68
2023/08/20 08:49:57;;;;;;;9.47;9.27;;;25.20;99.90;;;;;;4983187;28;20474;-68
2023/08/20 08:52:24;;;;;;;9.30;9.10;;;25.40;99.90;;;;;;4982443;28;20471;-70
2023/08/20 08:54:51;;;;;;;10.47;10.27;;;25.90;99.90;;;;;;4983503;28;20517;-68
2023/08/20 08:57:20;;;;;;;10.30;10.10;;;26.40;99.90;;;;;;4979400;28;20470;-68
2023/08/20 08:59:47;;;;;;;10.70;10.50;;;27.00;99.90;;;;;;4984997;28;20459;-68
2023/08/20 09:02:18;;;;;;;11.03;10.77;;;27.30;99.90;;;;;;4985475;28;20463;-68
2023/08/20 09:04:45;;;;;;;10.80;10.60;;;28.20;99.90;;;;;;4980267;28;20941;-68
2023/08/20 09:07:13;;;;;;;10.70;10.50;;;28.70;99.90;;;;;;4982998;28;20501;-68
2023/08/20 09:09:43;;;;;;;11.03;10.83;;;29.30;99.90;;;;;;4980400;28;20737;-70
2023/08/20 09:12:14;;;;;;;10.40;10.20;;;29.40;99.90;;;;;;4980777;28;20573;-70
2023/08/20 09:14:47;;;;;;;10.47;10.27;;;30.00;99.90;;;;;;4980154;28;20494;-69
2023/08/20 09:17:14;;;;;;;11.10;10.90;;;30.50;99.90;;;;;;4979824;28;20562;-68
2023/08/20 09:19:43;;;;;;;10.90;10.70;;;30.50;99.90;;;;;;4985080;28;20471;-69
2023/08/20 09:22:09;;;;;;;10.57;10.37;;;30.80;99.90;;;;;;4980109;28;20496;-69
2023/08/20 09:24:42;;;;;;;10.80;10.60;;;31.30;99.90;;;;;;4983432;28;20493;-68
2023/08/20 09:27:09;;;;;;;11.30;11.10;;;31.40;99.90;;;;;;4982523;28;20522;-71
2023/08/20 09:29:46;;;;;;;11.00;10.80;;;31.70;99.90;;;;;;4978905;28;20462;-68
2023/08/20 09:32:17;;;;;;;10.80;10.60;;;31.70;99.90;;;;;;4984084;28;20481;-68
2023/08/20 09:34:45;;;;;;;11.20;11.00;;;31.80;99.90;;;;;;4979978;28;20497;-69
2023/08/20 09:37:13;;;;;;;10.60;10.40;;;31.50;99.90;;;;;;4981041;28;20454;-69
2023/08/20 09:39:40;;;;;;;11.40;11.20;;;31.20;99.90;;;;;;4982928;28;20475;-68
2023/08/20 09:42:09;;;;;;;11.17;10.97;;;31.60;99.90;;;;;;4985269;28;20467;-70
2023/08/20 09:44:37;;;;;;;11.60;11.30;;;32.00;99.90;;;;;;4983320;28;20505;-68
2023/08/20 09:47:08;;;;;;;11.97;11.67;;;31.70;99.90;;;;;;4987169;28;20502;-67
2023/08/20 09:49:38;;;;;;;11.40;11.10;;;31.20;99.90;;;;;;4979749;28;20835;-69
2023/08/20 09:52:07;;;;;;;11.50;11.20;;;30.70;99.90;;;;;;4986007;28;20470;-70
2023/08/20 09:54:46;;;;;;;11.30;11.07;;;30.20;99.90;;;;;;4984517;28;21075;-67
2023/08/20 09:57:20;;;;;;;11.23;11.00;;;30.70;99.90;;;;;;4990334;28;20462;-66
2023/08/20 09:59:48;;;;;;;11.00;10.80;;;31.00;99.90;;;;;;4984265;28;20856;-67
2023/08/20 10:02:17;;;;;;;11.50;11.20;;;30.70;99.90;;;;;;4987496;28;20462;-69
2023/08/20 10:04:44;;;;;;;10.80;10.60;;;30.50;99.90;;;;;;4982801;28;20454;-67
2023/08/20 10:07:12;;;;;;;10.90;10.70;;;31.60;99.90;;;;;;4984792;28;20486;-67
2023/08/20 10:09:40;;;;;;;11.10;10.90;;;32.20;99.90;;;;;;4986877;28;20466;-67
2023/08/20 10:12:08;;;;;;;12.10;11.80;;;32.10;99.90;;;;;;4987742;28;20761;-67
2023/08/20 10:14:34;;;;;;;10.90;10.70;;;32.60;99.90;;;;;;4987546;28;20489;-69
2023/08/20 10:17:07;;;;;;;11.30;11.00;;;32.80;99.90;;;;;;4989199;28;20466;-67
2023/08/20 10:19:37;;;;;;;10.90;10.70;;;33.60;99.90;;;;;;4987729;28;20885;-67
2023/08/20 10:22:04;;;;;;;11.70;11.40;;;34.40;99.90;;;;;;4982364;28;20467;-67
2023/08/20 10:24:41;;;;;;;11.53;11.23;;;34.50;99.90;;;;;;4984417;28;20473;-67
2023/08/20 10:27:09;;;;;;;11.10;10.90;;;34.10;99.90;;;;;;4993274;28;20485;-69
2023/08/20 10:29:38;;;;;;;12.37;12.07;;;34.20;99.90;;;;;;4987682;28;20470;-67
2023/08/20 10:32:07;;;;;;;11.87;11.57;;;33.10;99.90;;;;;;4982759;28;20471;-67
2023/08/20 10:34:38;;;;;;;12.50;12.20;;;32.60;99.90;;;;;;4983018;28;20481;-67
2023/08/20 10:37:10;;;;;;;12.50;12.20;;;31.90;99.90;;;;;;4988793;28;20517;-67
2023/08/20 10:39:37;;;;;;;12.67;12.37;;;31.10;99.90;;;;;;4981237;28;20875;-67
2023/08/20 10:42:23;;;;;;;12.40;12.10;;;30.50;99.90;;;;;;4993992;28;21050;-66
2023/08/20 10:45:04;;;;;;;12.40;12.10;;;30.20;99.90;;;;;;4986145;28;20466;-66
2023/08/20 10:47:44;;;;;;;12.10;11.80;;;30.60;99.90;;;;;;4983709;28;20533;-66
2023/08/20 10:50:16;;;;;;;11.80;11.50;;;30.40;99.90;;;;;;4985871;28;20487;-67
2023/08/20 10:52:49;;;;;;;11.37;11.07;;;30.50;99.90;;;;;;4979558;28;20695;-68
2023/08/20 10:55:16;;;;;;;10.73;10.53;;;30.30;99.90;;;;;;4982046;28;20509;-67
2023/08/20 10:57:43;;;;;;;10.50;10.30;;;29.90;99.90;;;;;;4983913;28;20894;-66
2023/08/20 11:00:16;;;;;;;10.83;10.63;;;30.10;99.90;;;;;;4977925;28;20467;-67
2023/08/20 11:02:44;;;;;;;10.77;10.57;;;30.80;99.90;;;;;;4984611;28;20486;-67
2023/08/20 11:05:19;;;;;;;11.37;11.07;;;31.30;99.90;;;;;;4984756;28;20447;-67
2023/08/20 11:07:48;;;;;;;10.90;10.70;;;31.90;99.90;;;;;;4980984;28;20497;-69
2023/08/20 11:10:15;;;;;;;11.93;11.63;;;32.30;99.90;;;;;;4981071;28;20468;-68
2023/08/20 11:12:42;;;;;;;12.07;11.77;;;32.10;99.90;;;;;;4972993;28;20479;-66
2023/08/20 11:15:11;;;;;;;12.00;11.70;;;31.90;99.90;;;;;;4986324;28;20484;-67
2023/08/20 11:17:42;;;;;;;11.37;11.07;;;31.80;99.90;;;;;;4989639;28;20842;-69
2023/08/20 11:20:09;;;;;;;10.53;10.33;;;31.60;99.90;;;;;;4983338;28;20902;-66
2023/08/20 11:22:38;;;;;;;10.60;10.40;;;31.10;99.90;;;;;;4987356;28;20458;-66
2023/08/20 11:25:06;;;;;;;11.47;11.17;;;31.90;99.90;;;;;;4981347;28;20525;-66
2023/08/20 11:27:34;;;;;;;11.33;11.07;;;33.00;99.90;;;;;;4987447;28;20494;-67
2023/08/20 11:30:02;;;;;;;12.53;12.23;;;34.10;99.90;;;;;;4984333;28;21196;-69
2023/08/20 11:32:28;;;;;;;12.70;12.40;;;34.40;99.90;;;;;;4982717;28;20840;-69
2023/08/20 11:34:56;;;;;;;13.07;12.77;;;33.90;99.90;;;;;;4990178;28;20491;-69
2023/08/20 11:37:23;;;;;;;11.90;11.60;;;33.50;99.90;;;;;;4985571;28;20473;-67
2023/08/20 11:39:52;;;;;;;11.70;11.40;;;33.50;99.90;;;;;;4981691;28;20470;-68
2023/08/20 11:42:20;;;;;;;12.60;12.30;;;34.30;99.90;;;;;;4984002;28;20459;-67
2023/08/20 11:44:48;;;;;;;12.50;12.20;;;34.30;99.90;;;;;;4982820;28;20470;-67
2023/08/20 11:47:16;;;;;;;12.50;12.20;;;33.10;99.90;;;;;;4984396;28;20489;-68
2023/08/20 11:49:44;;;;;;;12.70;12.40;;;32.10;99.90;;;;;;4983855;28;20462;-67
2023/08/20 11:52:13;;;;;;;12.40;12.10;;;31.70;99.90;;;;;;4983759;28;20459;-66
2023/08/20 11:54:40;;;;;;;11.53;11.23;;;31.20;99.90;;;;;;4985480;28;20494;-66
2023/08/20 11:57:08;;;;;;;11.60;11.30;;;31.20;99.90;;;;;;4987306;28;20476;-67
2023/08/20 11:59:35;;;;;;;12.07;11.77;;;32.00;99.90;;;;;;4987689;28;20485;-69
2023/08/20 12:02:04;;;;;;;12.00;11.70;;;32.40;99.90;;;;;;4990538;28;20949;-66
2023/08/20 12:04:32;;;;;;;11.40;11.10;;;33.30;99.90;;;;;;4986349;28;20581;-68
2023/08/20 12:07:05;;;;;;;11.90;11.60;;;34.00;99.90;;;;;;4981033;28;20490;-67
2023/08/20 12:09:32;;;;;;;12.03;11.73;;;34.90;99.90;;;;;;4983646;28;20469;-67
2023/08/20 12:11:59;;;;;;;12.00;11.70;;;34.70;99.90;;;;;;4978769;28;20517;-66
2023/08/20 12:14:28;;;;;;;12.33;12.03;;;34.90;99.90;;;;;;4976158;28;20494;-68
2023/08/20 12:16:55;;;;;;;11.70;11.40;;;35.30;99.90;;;;;;4986805;28;20854;-68
2023/08/20 12:19:23;;;;;;;12.20;11.90;;;34.60;99.90;;;;;;4988122;28;20929;-67
2023/08/20 12:21:51;;;;;;;12.60;12.30;;;34.40;99.90;;;;;;4987954;28;20869;-67
2023/08/20 12:24:19;;;;;;;12.60;12.30;;;33.80;99.90;;;;;;4989846;28;20771;-68
2023/08/20 12:26:46;;;;;;;12.17;11.87;;;33.60;99.90;;;;;;4986917;28;20514;-65
2023/08/20 12:29:13;;;;;;;12.33;12.03;;;32.90;99.90;;;;;;4982744;28;20462;-65
2023/08/20 12:31:41;;;;;;;12.20;11.90;;;32.80;99.90;;;;;;4982895;28;20470;-68
2023/08/20 12:34:09;;;;;;;11.70;11.40;;;31.90;99.90;;;;;;4987643;28;20482;-67
2023/08/20 12:36:36;;;;;;;10.90;10.70;;;31.50;99.90;;;;;;4991274;28;20552;-67
2023/08/20 12:39:04;;;;;;;11.70;11.40;;;31.70;99.90;;;;;;4985601;28;20555;-66
2023/08/20 12:41:31;;;;;;;10.60;10.40;;;31.80;99.90;;;;;;4986508;28;20482;-68
2023/08/20 12:43:58;;;;;;;10.10;9.90;;;31.80;99.90;;;;;;4988931;28;20474;-68
2023/08/20 12:46:26;;;;;;;11.53;11.23;;;32.50;99.90;;;;;;4987183;28;20459;-68
2023/08/20 12:48:54;;;;;;;11.30;11.00;;;33.90;99.90;;;;;;4984907;28;21348;-67